Time;durP1;ratioP1;P1;durP2;ratioP2;P2;SDS_P1;SDS_P2;PMS_P1;PMS_P2;Temp;Humidity;BMP_temperature;BMP_pressure;BME280_temperature;BME280_humidity;BME280_pressure;Samples;Min_cycle;Max_cycle;Signal;HPM_P1;HPM_P2
2023/12/16 00:00:38;;;;;;;14.65;9.68;;;7.20;86.70;;;;;;4961970;28;20038;-63
2023/12/16 00:03:06;;;;;;;12.30;9.43;;;7.20;86.80;;;;;;4963522;28;20035;-63
2023/12/16 00:05:32;;;;;;;13.55;10.15;;;7.20;86.80;;;;;;4959916;28;20098;-63
2023/12/16 00:07:58;;;;;;;12.73;9.20;;;7.20;86.70;;;;;;4957342;28;21862;-63
2023/12/16 00:10:23;;;;;;;12.63;8.93;;;7.30;86.60;;;;;;4958176;28;20032;-62
2023/12/16 00:12:49;;;;;;;14.07;9.13;;;7.20;86.60;;;;;;4957117;28;20096;-63
2023/12/16 00:15:14;;;;;;;13.30;9.07;;;7.30;86.70;;;;;;4960817;28;20040;-63
2023/12/16 00:17:40;;;;;;;13.68;9.27;;;7.20;86.60;;;;;;4959671;28;20097;-63
2023/12/16 00:20:07;;;;;;;13.35;9.27;;;7.20;86.70;;;;;;4966011;28;20031;-63
2023/12/16 00:22:32;;;;;;;12.65;9.25;;;7.20;86.60;;;;;;4956218;28;20038;-62
2023/12/16 00:24:58;;;;;;;12.88;9.52;;;7.20;86.60;;;;;;4960906;28;20884;-61
2023/12/16 00:27:23;;;;;;;14.05;9.80;;;7.20;86.70;;;;;;4958678;28;20031;-63
2023/12/16 00:29:49;;;;;;;13.82;9.73;;;7.20;86.60;;;;;;4956308;28;20040;-63
2023/12/16 00:32:14;;;;;;;12.55;9.75;;;7.20;86.70;;;;;;4953737;28;20093;-63
2023/12/16 00:34:40;;;;;;;12.57;9.02;;;7.20;86.70;;;;;;4958193;28;20510;-63
2023/12/16 00:37:06;;;;;;;14.68;9.75;;;7.20;86.60;;;;;;4961713;28;20513;-63
2023/12/16 00:39:32;;;;;;;12.30;8.85;;;7.10;86.60;;;;;;4959727;28;20410;-63
2023/12/16 00:41:58;;;;;;;14.85;9.98;;;7.10;86.60;;;;;;4956597;28;20046;-63
2023/12/16 00:44:24;;;;;;;13.82;9.90;;;7.10;86.60;;;;;;4960006;28;20035;-63
2023/12/16 00:46:49;;;;;;;13.98;9.65;;;7.10;86.70;;;;;;4949269;28;20121;-63
2023/12/16 00:49:15;;;;;;;13.10;9.25;;;7.10;86.80;;;;;;4956424;28;20468;-63
2023/12/16 00:51:40;;;;;;;15.23;9.52;;;7.10;86.90;;;;;;4959540;28;20031;-63
2023/12/16 00:54:06;;;;;;;11.93;8.73;;;7.10;87.10;;;;;;4955150;28;20082;-63
2023/12/16 00:56:31;;;;;;;13.07;9.00;;;7.10;87.10;;;;;;4958040;28;20518;-61
2023/12/16 00:58:57;;;;;;;14.10;9.35;;;7.10;87.30;;;;;;4959219;28;20053;-63
2023/12/16 01:01:23;;;;;;;14.05;9.13;;;7.10;87.10;;;;;;4958077;28;20032;-63
2023/12/16 01:03:48;;;;;;;13.13;9.70;;;7.10;87.20;;;;;;4957788;28;20043;-63
2023/12/16 01:06:14;;;;;;;12.25;8.85;;;7.10;87.20;;;;;;4956126;28;20078;-63
2023/12/16 01:08:42;;;;;;;12.48;8.88;;;7.10;87.20;;;;;;4961044;28;20081;-63
2023/12/16 01:11:07;;;;;;;13.52;9.15;;;7.10;87.20;;;;;;4960720;28;20042;-63
2023/12/16 01:13:33;;;;;;;11.77;8.95;;;7.10;87.10;;;;;;4961824;28;20027;-63
2023/12/16 01:15:58;;;;;;;11.20;8.20;;;7.10;87.10;;;;;;4958382;28;20353;-63
2023/12/16 01:18:24;;;;;;;11.98;8.13;;;7.00;87.10;;;;;;4959081;28;20454;-63
2023/12/16 01:20:51;;;;;;;11.50;8.18;;;7.00;87.00;;;;;;4960356;28;20122;-63
2023/12/16 01:23:16;;;;;;;11.77;8.38;;;7.00;87.10;;;;;;4962314;28;20059;-63
2023/12/16 01:25:42;;;;;;;11.27;8.23;;;7.00;86.90;;;;;;4964357;28;20475;-62
2023/12/16 01:28:07;;;;;;;10.68;7.70;;;7.00;86.80;;;;;;4961520;28;20041;-63
2023/12/16 01:30:33;;;;;;;9.55;7.38;;;7.00;86.90;;;;;;4960783;28;20121;-63
2023/12/16 01:32:58;;;;;;;11.75;7.40;;;6.90;86.90;;;;;;4959540;28;20053;-63
2023/12/16 01:35:24;;;;;;;12.00;7.47;;;7.00;87.00;;;;;;4964603;28;20077;-63
2023/12/16 01:37:50;;;;;;;10.25;7.80;;;6.90;86.90;;;;;;4960594;28;20063;-63
2023/12/16 01:40:15;;;;;;;12.45;7.63;;;6.90;86.70;;;;;;4960870;28;20032;-63
2023/12/16 01:42:41;;;;;;;10.63;7.53;;;6.90;86.70;;;;;;4958758;28;20081;-63
2023/12/16 01:45:07;;;;;;;12.70;8.27;;;6.90;86.70;;;;;;4958131;28;20110;-63
2023/12/16 01:47:33;;;;;;;12.02;7.97;;;6.90;86.70;;;;;;4961764;28;20402;-62
2023/12/16 01:49:59;;;;;;;10.77;8.13;;;6.90;86.70;;;;;;4965471;28;20307;-63
2023/12/16 01:52:25;;;;;;;12.18;8.73;;;6.80;86.50;;;;;;4962566;28;20039;-63
2023/12/16 01:54:50;;;;;;;13.15;8.30;;;6.80;86.50;;;;;;4958274;28;20498;-62
2023/12/16 01:57:18;;;;;;;12.02;8.75;;;6.80;86.60;;;;;;4962019;28;20035;-63
2023/12/16 01:59:44;;;;;;;11.65;8.65;;;6.80;86.80;;;;;;4964572;28;20122;-63
2023/12/16 02:02:11;;;;;;;14.43;8.70;;;6.70;87.60;;;;;;4962048;28;20447;-62
2023/12/16 02:04:37;;;;;;;13.60;8.98;;;6.70;86.90;;;;;;4961646;28;20034;-62
2023/12/16 02:07:04;;;;;;;13.02;9.00;;;6.70;86.90;;;;;;4957997;28;20055;-63
2023/12/16 02:09:30;;;;;;;14.27;9.30;;;6.70;86.90;;;;;;4958119;28;20051;-63
2023/12/16 02:11:58;;;;;;;14.93;9.43;;;6.70;87.10;;;;;;4958661;28;20055;-63
2023/12/16 02:14:24;;;;;;;14.10;9.98;;;6.60;87.20;;;;;;4969695;28;20093;-63
2023/12/16 02:16:49;;;;;;;13.43;9.48;;;6.60;87.20;;;;;;4962565;28;20180;-63
2023/12/16 02:19:24;;;;;;;14.38;9.35;;;6.60;87.20;;;;;;4960340;28;20276;-63
2023/12/16 02:21:50;;;;;;;15.27;9.63;;;6.60;87.30;;;;;;4960631;28;20428;-63
2023/12/16 02:24:16;;;;;;;14.10;10.13;;;6.60;87.30;;;;;;4960990;28;20031;-63
2023/12/16 02:26:41;;;;;;;13.52;9.65;;;6.60;87.30;;;;;;4964469;28;20450;-63
2023/12/16 02:29:07;;;;;;;14.48;10.23;;;6.60;87.40;;;;;;4961833;28;20031;-63
2023/12/16 02:31:32;;;;;;;14.05;9.82;;;6.60;87.50;;;;;;4960642;28;20455;-63
2023/12/16 02:33:58;;;;;;;15.45;10.23;;;6.50;87.60;;;;;;4962261;28;20317;-63
2023/12/16 02:36:24;;;;;;;14.65;9.65;;;6.60;87.90;;;;;;4960737;28;20047;-63
2023/12/16 02:38:50;;;;;;;12.82;9.50;;;6.50;87.80;;;;;;4963887;28;20082;-63
2023/12/16 02:41:16;;;;;;;12.85;8.75;;;6.60;88.00;;;;;;4959818;28;20058;-63
2023/12/16 02:43:42;;;;;;;14.05;9.25;;;6.50;87.90;;;;;;4961722;28;20031;-63
2023/12/16 02:46:08;;;;;;;13.13;9.27;;;6.50;88.00;;;;;;4958620;28;20027;-63
2023/12/16 02:48:34;;;;;;;14.75;9.15;;;6.70;88.20;;;;;;4955019;28;20035;-63
2023/12/16 02:50:59;;;;;;;13.93;9.20;;;6.50;88.00;;;;;;4962690;28;20043;-63
2023/12/16 02:53:25;;;;;;;12.27;8.40;;;6.50;88.10;;;;;;4966078;28;20150;-63
2023/12/16 02:55:51;;;;;;;11.50;8.23;;;6.50;88.20;;;;;;4961908;28;20078;-63
2023/12/16 02:58:16;;;;;;;13.32;8.27;;;6.50;88.20;;;;;;4959778;28;20086;-63
2023/12/16 03:00:42;;;;;;;10.52;8.13;;;6.50;88.30;;;;;;4959873;28;20035;-63
2023/12/16 03:03:08;;;;;;;13.20;8.48;;;6.50;88.30;;;;;;4957297;28;20024;-63
2023/12/16 03:05:33;;;;;;;14.23;8.52;;;6.50;88.30;;;;;;4965874;28;20042;-63
2023/12/16 03:07:59;;;;;;;14.07;8.35;;;6.50;88.30;;;;;;4961003;28;20047;-63
2023/12/16 03:10:25;;;;;;;11.95;8.30;;;6.50;88.40;;;;;;4958908;28;20182;-63
2023/12/16 03:12:50;;;;;;;11.75;8.27;;;6.50;88.40;;;;;;4957135;28;20035;-63
2023/12/16 03:15:16;;;;;;;12.13;8.50;;;6.50;88.40;;;;;;4963164;28;20035;-63
2023/12/16 03:17:43;;;;;;;14.73;8.68;;;6.50;88.40;;;;;;4961339;28;20035;-63
2023/12/16 03:20:09;;;;;;;12.32;8.55;;;6.50;88.20;;;;;;4961671;28;20538;-63
2023/12/16 03:22:35;;;;;;;14.55;9.05;;;6.60;88.30;;;;;;4960787;28;20031;-63
2023/12/16 03:25:00;;;;;;;13.93;9.07;;;6.50;88.10;;;;;;4959784;28;20045;-63
2023/12/16 03:27:26;;;;;;;12.13;9.27;;;6.50;88.00;;;;;;4958765;28;20035;-63
2023/12/16 03:29:52;;;;;;;13.20;9.07;;;6.60;88.00;;;;;;4958292;28;20031;-63
2023/12/16 03:32:17;;;;;;;16.88;9.75;;;6.50;88.00;;;;;;4964125;28;20039;-63
2023/12/16 03:34:46;;;;;;;13.57;9.38;;;6.50;88.00;;;;;;4964744;28;20027;-63
2023/12/16 03:37:12;;;;;;;14.32;9.88;;;6.50;88.00;;;;;;4968128;28;20031;-63
2023/12/16 03:39:40;;;;;;;14.98;10.15;;;6.50;88.00;;;;;;4957056;28;20036;-63
2023/12/16 03:42:06;;;;;;;15.52;9.75;;;6.50;88.00;;;;;;4955215;28;20115;-63
2023/12/16 03:44:34;;;;;;;14.50;10.35;;;6.40;88.00;;;;;;4958708;28;20130;-63
2023/12/16 03:47:00;;;;;;;15.98;10.85;;;6.40;88.10;;;;;;4964528;28;20109;-63
2023/12/16 03:49:25;;;;;;;16.13;10.15;;;6.40;88.20;;;;;;4964036;28;20066;-63
2023/12/16 03:51:52;;;;;;;15.55;11.20;;;6.40;88.20;;;;;;4959333;28;20035;-63
2023/12/16 03:54:18;;;;;;;14.95;10.30;;;6.40;88.20;;;;;;4961620;28;20053;-62
2023/12/16 03:56:43;;;;;;;16.85;10.93;;;6.40;88.20;;;;;;4959662;28;20035;-63
2023/12/16 03:59:09;;;;;;;18.58;11.75;;;6.40;88.20;;;;;;4961868;28;20106;-63
2023/12/16 04:01:34;;;;;;;17.33;11.45;;;6.40;88.40;;;;;;4969411;28;20034;-62
2023/12/16 04:04:00;;;;;;;17.95;12.02;;;6.50;88.60;;;;;;4959644;28;20058;-63
2023/12/16 04:06:26;;;;;;;16.77;12.05;;;6.50;88.60;;;;;;4957916;28;20034;-63
2023/12/16 04:08:51;;;;;;;16.95;11.80;;;6.50;88.50;;;;;;4954751;28;20085;-63
2023/12/16 04:11:17;;;;;;;16.85;12.00;;;6.50;88.60;;;;;;4959234;28;20031;-65
2023/12/16 04:13:42;;;;;;;17.25;11.63;;;6.50;88.60;;;;;;4959768;28;20038;-63
2023/12/16 04:16:11;;;;;;;18.13;12.73;;;6.50;88.60;;;;;;4961913;28;20110;-63
2023/12/16 04:18:36;;;;;;;15.20;11.50;;;6.50;88.70;;;;;;4962115;28;20482;-61
2023/12/16 04:21:02;;;;;;;17.73;12.68;;;6.50;88.70;;;;;;4962916;28;20045;-63
2023/12/16 04:23:28;;;;;;;16.48;11.85;;;6.60;89.10;;;;;;4963391;28;20039;-63
2023/12/16 04:25:54;;;;;;;17.10;11.88;;;6.60;88.60;;;;;;4962079;28;20082;-62
2023/12/16 04:28:19;;;;;;;16.10;11.20;;;6.60;88.60;;;;;;4964217;28;20023;-63
2023/12/16 04:30:45;;;;;;;18.23;12.43;;;6.60;88.60;;;;;;4962229;28;20055;-63
2023/12/16 04:33:10;;;;;;;18.17;12.65;;;6.60;88.60;;;;;;4962345;28;20045;-63
2023/12/16 04:35:36;;;;;;;19.05;12.35;;;6.60;88.50;;;;;;4957160;28;20405;-63
2023/12/16 04:38:02;;;;;;;19.08;12.70;;;6.60;88.40;;;;;;4956373;28;20511;-62
2023/12/16 04:40:27;;;;;;;19.77;13.73;;;6.60;88.40;;;;;;4961606;28;20022;-62
2023/12/16 04:42:53;;;;;;;21.95;14.13;;;6.60;88.20;;;;;;4959250;28;20313;-63
2023/12/16 04:45:19;;;;;;;22.25;13.70;;;6.60;88.20;;;;;;4962862;28;20333;-63
2023/12/16 04:47:45;;;;;;;20.58;13.77;;;6.60;88.00;;;;;;4957912;28;20134;-61
2023/12/16 04:50:11;;;;;;;21.20;13.98;;;6.60;88.00;;;;;;4960789;28;20110;-63
2023/12/16 04:52:36;;;;;;;22.27;13.73;;;6.60;88.00;;;;;;4965925;28;20494;-62
2023/12/16 04:55:03;;;;;;;20.90;14.13;;;6.60;88.00;;;;;;4967515;28;20045;-63
2023/12/16 04:57:28;;;;;;;22.05;14.68;;;6.60;87.90;;;;;;4966404;28;20477;-63
2023/12/16 04:59:54;;;;;;;22.92;15.02;;;6.50;87.70;;;;;;4967221;28;20038;-63
2023/12/16 05:02:19;;;;;;;21.27;14.60;;;6.50;87.60;;;;;;4961035;28;20457;-63
2023/12/16 05:04:45;;;;;;;23.45;14.18;;;6.50;87.70;;;;;;4961429;28;20555;-62
2023/12/16 05:07:10;;;;;;;21.23;14.23;;;6.50;87.80;;;;;;4966130;28;20035;-62
2023/12/16 05:09:36;;;;;;;21.23;14.20;;;6.40;87.90;;;;;;4964186;28;20042;-62
2023/12/16 05:12:02;;;;;;;21.73;14.82;;;6.40;87.90;;;;;;4962505;28;20042;-63
2023/12/16 05:14:27;;;;;;;21.23;14.07;;;6.40;87.90;;;;;;4968005;28;20523;-63
2023/12/16 05:16:54;;;;;;;21.83;14.35;;;6.40;87.80;;;;;;4966293;28;20458;-63
2023/12/16 05:19:19;;;;;;;21.98;14.23;;;6.30;87.70;;;;;;4963662;28;20043;-63
2023/12/16 05:21:45;;;;;;;23.00;14.77;;;6.30;87.60;;;;;;4959676;28;20071;-63
2023/12/16 05:24:10;;;;;;;20.35;13.65;;;6.30;87.50;;;;;;4959053;28;20034;-63
2023/12/16 05:26:36;;;;;;;19.00;13.45;;;6.20;87.50;;;;;;4967797;28;20030;-62
2023/12/16 05:29:01;;;;;;;22.00;13.30;;;6.20;87.70;;;;;;4947369;28;20031;-63
2023/12/16 05:31:27;;;;;;;19.95;12.55;;;6.20;87.80;;;;;;4964198;28;20055;-63
2023/12/16 05:33:52;;;;;;;19.08;13.55;;;6.10;87.70;;;;;;4972934;28;20041;-63
2023/12/16 05:36:18;;;;;;;18.63;12.52;;;6.10;87.80;;;;;;4970228;28;20050;-63
2023/12/16 05:38:44;;;;;;;16.27;11.75;;;6.10;87.70;;;;;;4966289;28;20031;-63
2023/12/16 05:41:12;;;;;;;17.42;11.73;;;6.00;87.70;;;;;;4961351;28;20495;-63
2023/12/16 05:43:38;;;;;;;17.23;11.55;;;6.00;87.50;;;;;;4942868;28;20054;-63
2023/12/16 05:46:03;;;;;;;18.25;12.57;;;6.00;87.30;;;;;;4958083;28;20050;-63
2023/12/16 05:48:29;;;;;;;17.63;11.10;;;6.00;87.30;;;;;;4959741;28;20329;-63
2023/12/16 05:50:55;;;;;;;17.08;11.30;;;6.00;87.20;;;;;;4961936;28;20598;-63
2023/12/16 05:53:21;;;;;;;15.43;10.20;;;5.90;87.20;;;;;;4965752;28;20353;-62
2023/12/16 05:55:47;;;;;;;16.77;10.88;;;5.90;87.30;;;;;;4960704;28;20114;-63
2023/12/16 05:58:13;;;;;;;16.17;9.82;;;5.80;87.30;;;;;;4957817;28;20565;-63
2023/12/16 06:00:38;;;;;;;16.27;10.90;;;5.80;87.60;;;;;;4960945;28;20027;-63
2023/12/16 06:03:04;;;;;;;14.32;10.25;;;5.80;87.80;;;;;;4962071;28;20465;-65
2023/12/16 06:05:29;;;;;;;18.35;10.85;;;5.70;88.00;;;;;;4963513;28;20042;-63
2023/12/16 06:07:55;;;;;;;16.60;11.05;;;5.70;88.10;;;;;;4957484;28;20578;-63
2023/12/16 06:10:20;;;;;;;16.85;10.98;;;5.70;88.20;;;;;;4957268;28;20415;-63
2023/12/16 06:12:46;;;;;;;17.50;11.68;;;5.70;88.20;;;;;;4963098;28;20143;-63
2023/12/16 06:15:11;;;;;;;20.40;14.23;;;5.80;88.00;;;;;;4962911;28;20356;-63
2023/12/16 06:17:40;;;;;;;22.88;14.40;;;5.80;88.00;;;;;;4959626;28;20502;-63
2023/12/16 06:20:06;;;;;;;21.80;14.55;;;5.70;87.70;;;;;;4964326;28;20118;-63
2023/12/16 06:22:34;;;;;;;20.33;13.15;;;5.70;87.70;;;;;;4965604;28;20062;-66
2023/12/16 06:25:00;;;;;;;22.55;13.40;;;5.70;87.70;;;;;;4962533;28;20043;-63
2023/12/16 06:27:25;;;;;;;19.02;13.00;;;5.60;87.70;;;;;;4960710;28;20031;-63
2023/12/16 06:29:51;;;;;;;18.30;12.07;;;5.70;87.70;;;;;;4958234;28;20066;-63
2023/12/16 06:32:16;;;;;;;17.48;12.38;;;5.60;87.50;;;;;;4961934;28;20502;-63
2023/12/16 06:34:42;;;;;;;16.95;11.75;;;5.60;87.50;;;;;;4961648;28;20069;-63
2023/12/16 06:37:08;;;;;;;18.30;12.23;;;5.60;87.40;;;;;;4963904;28;20090;-63
2023/12/16 06:39:33;;;;;;;17.58;11.98;;;5.60;87.20;;;;;;4963744;28;20495;-63
2023/12/16 06:41:59;;;;;;;18.23;11.85;;;5.50;87.20;;;;;;4958989;28;20283;-63
2023/12/16 06:44:24;;;;;;;17.40;11.90;;;5.50;87.30;;;;;;4965812;28;20455;-63
2023/12/16 06:46:50;;;;;;;17.48;11.63;;;5.50;87.30;;;;;;4959477;28;20027;-63
2023/12/16 06:49:15;;;;;;;21.83;13.05;;;5.50;87.50;;;;;;4965830;28;20086;-63
2023/12/16 06:51:41;;;;;;;22.52;13.40;;;5.50;88.40;;;;;;4960806;28;20045;-63
2023/12/16 06:54:06;;;;;;;20.38;13.75;;;5.40;87.50;;;;;;4962528;28;20031;-63
2023/12/16 06:56:32;;;;;;;22.85;14.73;;;5.50;87.60;;;;;;4960737;28;20807;-63
2023/12/16 06:58:58;;;;;;;22.90;14.18;;;5.40;87.50;;;;;;4962164;28;20778;-63
2023/12/16 07:01:24;;;;;;;20.95;13.98;;;5.40;87.50;;;;;;4943652;28;20114;-63
2023/12/16 07:03:50;;;;;;;21.13;13.90;;;5.40;87.80;;;;;;4964767;28;20498;-63
2023/12/16 07:06:19;;;;;;;20.80;13.90;;;5.40;88.00;;;;;;4963755;28;20069;-63
2023/12/16 07:08:46;;;;;;;21.95;13.77;;;5.40;87.90;;;;;;4962815;28;20051;-63
2023/12/16 07:11:13;;;;;;;19.98;13.38;;;5.40;87.90;;;;;;4957108;28;20031;-63
2023/12/16 07:13:38;;;;;;;21.20;13.82;;;5.30;87.90;;;;;;4963814;28;20085;-63
2023/12/16 07:16:04;;;;;;;20.13;13.10;;;5.30;88.00;;;;;;4962389;28;20031;-63
2023/12/16 07:18:30;;;;;;;19.40;13.15;;;5.30;88.00;;;;;;4962335;28;20035;-62
2023/12/16 07:20:56;;;;;;;19.65;13.60;;;5.30;88.10;;;;;;4959682;28;20019;-63
2023/12/16 07:23:23;;;;;;;19.65;13.23;;;5.40;88.00;;;;;;4960433;28;20027;-63
2023/12/16 07:25:50;;;;;;;21.38;13.27;;;5.30;87.90;;;;;;4963062;28;20038;-63
2023/12/16 07:28:16;;;;;;;20.42;13.85;;;5.30;87.80;;;;;;4957609;28;20577;-63
2023/12/16 07:30:44;;;;;;;19.67;13.77;;;5.30;87.80;;;;;;4951492;28;20050;-63
2023/12/16 07:33:10;;;;;;;20.20;13.65;;;5.40;87.90;;;;;;4971472;28;20093;-64
2023/12/16 07:35:38;;;;;;;21.83;14.52;;;5.30;87.90;;;;;;4969515;28;20473;-63
2023/12/16 07:38:04;;;;;;;21.83;15.40;;;5.30;88.00;;;;;;4968191;28;20035;-63
2023/12/16 07:40:29;;;;;;;21.42;14.85;;;5.30;88.00;;;;;;4963066;28;20467;-63
2023/12/16 07:42:55;;;;;;;23.33;15.50;;;5.30;88.00;;;;;;4968952;28;20039;-63
2023/12/16 07:45:20;;;;;;;22.45;14.52;;;5.30;88.00;;;;;;4970208;28;20108;-63
2023/12/16 07:47:46;;;;;;;21.20;14.35;;;5.30;88.10;;;;;;4971672;28;20038;-63
2023/12/16 07:50:11;;;;;;;23.20;14.50;;;5.30;88.10;;;;;;4968917;28;20517;-63
2023/12/16 07:52:37;;;;;;;23.73;14.90;;;5.30;88.20;;;;;;4963888;28;20454;-63
2023/12/16 07:55:03;;;;;;;20.05;13.45;;;5.30;88.30;;;;;;4969575;28;20034;-63
2023/12/16 07:57:29;;;;;;;21.60;12.70;;;5.30;88.50;;;;;;4969789;28;20418;-66
2023/12/16 07:59:57;;;;;;;20.05;12.80;;;5.30;88.40;;;;;;4966258;28;20428;-65
2023/12/16 08:02:23;;;;;;;18.15;12.20;;;5.30;88.50;;;;;;4964647;28;20089;-65
2023/12/16 08:04:49;;;;;;;21.33;13.52;;;5.30;88.40;;;;;;4964924;28;20046;-63
2023/12/16 08:07:15;;;;;;;21.70;12.82;;;5.30;88.30;;;;;;4965980;28;20039;-65
2023/12/16 08:09:40;;;;;;;21.13;13.20;;;5.30;88.30;;;;;;4965755;28;20039;-65
2023/12/16 08:12:06;;;;;;;19.13;13.18;;;5.20;88.40;;;;;;4967612;28;20467;-65
2023/12/16 08:14:32;;;;;;;20.20;13.38;;;5.20;88.50;;;;;;4968901;28;20097;-67
2023/12/16 08:16:57;;;;;;;19.42;13.23;;;5.20;88.50;;;;;;4970151;28;20035;-65
2023/12/16 08:19:23;;;;;;;19.25;13.35;;;5.20;88.50;;;;;;4966109;28;20035;-65
2023/12/16 08:21:48;;;;;;;20.17;13.50;;;5.20;88.40;;;;;;4970207;28;20494;-65
2023/12/16 08:24:14;;;;;;;18.25;12.15;;;5.20;88.50;;;;;;4959587;28;20158;-65
2023/12/16 08:26:39;;;;;;;21.48;12.80;;;5.20;88.50;;;;;;4969592;28;20039;-65
2023/12/16 08:29:05;;;;;;;18.17;12.85;;;5.20;88.60;;;;;;4977892;28;20093;-65
2023/12/16 08:31:30;;;;;;;23.02;13.68;;;5.30;88.60;;;;;;4970457;28;20027;-65
2023/12/16 08:33:56;;;;;;;19.83;12.95;;;5.30;88.60;;;;;;4973584;28;20038;-65
2023/12/16 08:36:22;;;;;;;20.17;13.65;;;5.30;88.60;;;;;;4971101;28;20588;-65
2023/12/16 08:38:47;;;;;;;20.52;13.60;;;5.30;88.60;;;;;;4980145;28;20053;-65
2023/12/16 08:41:14;;;;;;;21.88;13.55;;;5.30;88.70;;;;;;4971348;28;20114;-65
2023/12/16 08:43:41;;;;;;;20.05;13.65;;;5.30;88.80;;;;;;4976084;28;20034;-65
2023/12/16 08:46:07;;;;;;;20.38;13.80;;;5.30;88.90;;;;;;4968378;28;20058;-65
2023/12/16 08:48:35;;;;;;;24.20;16.75;;;5.30;88.90;;;;;;4970470;28;20126;-65
2023/12/16 08:51:01;;;;;;;26.23;16.38;;;5.40;89.10;;;;;;4969603;28;20030;-65
2023/12/16 08:53:27;;;;;;;23.40;15.00;;;5.40;89.10;;;;;;4973307;28;20162;-65
2023/12/16 08:55:52;;;;;;;24.38;16.23;;;5.40;89.10;;;;;;4976294;28;20502;-65
2023/12/16 08:58:18;;;;;;;23.13;15.68;;;5.40;89.20;;;;;;4966891;28;20435;-65
2023/12/16 09:00:44;;;;;;;22.95;15.52;;;5.50;89.30;;;;;;4971086;28;20034;-65
2023/12/16 09:03:09;;;;;;;21.50;14.05;;;5.50;89.30;;;;;;4976097;28;20046;-65
2023/12/16 09:05:36;;;;;;;23.25;14.75;;;5.50;89.30;;;;;;4968270;28;20046;-65
2023/12/16 09:08:02;;;;;;;20.30;14.27;;;5.50;89.30;;;;;;4970057;28;20049;-65
2023/12/16 09:10:28;;;;;;;22.23;14.60;;;5.50;89.30;;;;;;4970216;28;20552;-65
2023/12/16 09:12:54;;;;;;;22.67;13.98;;;5.60;89.40;;;;;;4974872;28;20410;-65
2023/12/16 09:15:20;;;;;;;23.65;14.68;;;5.60;89.60;;;;;;4973785;28;20031;-65
2023/12/16 09:17:47;;;;;;;25.83;15.25;;;5.60;89.60;;;;;;4969111;28;20066;-64
2023/12/16 09:20:13;;;;;;;24.35;15.80;;;5.70;89.70;;;;;;4962658;28;20043;-65
2023/12/16 09:22:42;;;;;;;23.33;15.25;;;5.70;89.80;;;;;;4973668;28;20042;-64
2023/12/16 09:25:09;;;;;;;21.65;13.90;;;5.70;89.80;;;;;;4965545;28;20134;-65
2023/12/16 09:27:35;;;;;;;21.75;13.32;;;5.80;89.90;;;;;;4973482;28;20118;-65
2023/12/16 09:30:03;;;;;;;23.42;14.55;;;5.80;89.90;;;;;;4977191;28;20038;-65
2023/12/16 09:32:29;;;;;;;19.95;13.15;;;5.80;90.00;;;;;;4965931;28;20044;-65
2023/12/16 09:34:55;;;;;;;22.85;13.73;;;5.90;90.00;;;;;;4967654;28;20035;-65
2023/12/16 09:37:20;;;;;;;20.15;13.63;;;5.90;90.00;;;;;;4965054;28;20160;-65
2023/12/16 09:39:46;;;;;;;20.20;13.02;;;6.00;90.00;;;;;;4968651;28;20535;-65
2023/12/16 09:42:14;;;;;;;19.52;13.30;;;6.00;90.30;;;;;;4972785;28;20414;-65
2023/12/16 09:44:41;;;;;;;19.05;13.20;;;6.10;90.00;;;;;;4967427;28;20031;-65
2023/12/16 09:47:11;;;;;;;31.33;18.08;;;6.10;89.80;;;;;;4969325;28;20031;-65
2023/12/16 09:49:38;;;;;;;27.35;16.60;;;6.20;89.80;;;;;;4969623;28;20039;-65
2023/12/16 09:52:04;;;;;;;26.65;14.27;;;6.20;89.80;;;;;;4955814;28;20058;-65
2023/12/16 09:54:30;;;;;;;21.00;13.75;;;6.30;89.80;;;;;;4965858;28;20331;-65
2023/12/16 09:56:56;;;;;;;20.02;12.63;;;6.30;89.80;;;;;;4972249;28;20038;-65
2023/12/16 09:59:27;;;;;;;17.30;12.40;;;6.40;89.70;;;;;;4970352;28;20046;-65
2023/12/16 10:02:01;;;;;;;18.33;12.18;;;6.40;89.40;;;;;;4966275;28;20069;-65
2023/12/16 10:04:27;;;;;;;;;;;6.50;89.30;;;;;;4968507;28;20117;-65
2023/12/16 10:06:56;;;;;;;19.80;11.80;;;6.50;89.40;;;;;;4970503;28;19914;-65
2023/12/16 10:09:25;;;;;;;16.38;11.68;;;6.50;89.20;;;;;;4973824;28;20031;-65
2023/12/16 10:11:51;;;;;;;15.82;10.80;;;6.60;89.30;;;;;;4975611;28;20101;-64
2023/12/16 10:14:17;;;;;;;13.70;10.00;;;6.60;89.10;;;;;;4970271;28;20038;-65
2023/12/16 10:16:48;;;;;;;14.35;10.25;;;6.70;89.20;;;;;;4966964;28;20410;-64
2023/12/16 10:19:16;;;;;;;14.30;9.88;;;6.70;88.80;;;;;;4954551;28;20046;-64
2023/12/16 10:21:42;;;;;;;13.27;9.35;;;6.70;88.80;;;;;;4968894;28;20036;-65
2023/12/16 10:24:08;;;;;;;13.70;9.60;;;6.80;88.80;;;;;;4972047;28;20042;-64
2023/12/16 10:26:41;;;;;;;15.70;10.35;;;6.90;88.60;;;;;;4967621;28;20035;-65
2023/12/16 10:29:07;;;;;;;14.20;10.02;;;6.90;88.30;;;;;;4948219;28;20030;-65
2023/12/16 10:31:34;;;;;;;13.38;9.43;;;7.00;88.40;;;;;;4966662;28;20530;-65
2023/12/16 10:34:01;;;;;;;13.02;9.23;;;7.00;88.30;;;;;;4968408;28;20037;-65
2023/12/16 10:36:29;;;;;;;12.70;9.55;;;7.10;88.30;;;;;;4966653;28;20023;-65
2023/12/16 10:38:54;;;;;;;13.25;9.02;;;7.10;88.20;;;;;;4967736;28;20118;-65
2023/12/16 10:41:21;;;;;;;15.40;9.13;;;7.20;88.10;;;;;;4963296;28;20065;-65
2023/12/16 10:43:47;;;;;;;13.35;9.40;;;7.20;87.80;;;;;;4970367;28;20030;-65
2023/12/16 10:46:17;;;;;;;12.68;9.23;;;7.30;87.70;;;;;;4966031;28;20035;-65
2023/12/16 10:48:46;;;;;;;12.10;8.25;;;7.30;87.50;;;;;;4970781;28;20062;-63
2023/12/16 10:51:15;;;;;;;14.75;8.73;;;7.40;87.40;;;;;;4967824;28;20061;-64
2023/12/16 10:53:55;;;;;;;10.05;7.63;;;7.40;87.10;;;;;;4971626;28;20542;-65
2023/12/16 10:56:32;;;;;;;10.98;8.23;;;7.50;87.10;;;;;;4970939;28;20638;-65
2023/12/16 10:58:58;;;;;;;10.38;7.57;;;7.50;86.60;;;;;;4971561;28;20513;-65
2023/12/16 11:01:29;;;;;;;10.88;7.32;;;7.60;86.90;;;;;;4966219;28;20055;-65
2023/12/16 11:04:16;;;;;;;11.13;7.57;;;7.60;86.50;;;;;;4967064;28;20042;-65
2023/12/16 11:07:00;;;;;;;9.57;6.50;;;7.70;85.70;;;;;;4966836;28;20722;-65
2023/12/16 11:09:25;;;;;;;9.60;7.35;;;7.70;85.80;;;;;;4968762;28;20138;-65
2023/12/16 11:11:53;;;;;;;11.75;6.93;;;7.80;85.80;;;;;;4973513;28;20473;-65
2023/12/16 11:14:20;;;;;;;10.48;7.53;;;7.80;85.40;;;;;;4972592;28;20073;-64
2023/12/16 11:16:58;;;;;;;9.00;6.80;;;7.80;85.30;;;;;;4967525;28;20169;-65
2023/12/16 11:19:38;;;;;;;9.52;6.80;;;7.90;84.60;;;;;;4969674;28;20530;-63
2023/12/16 11:22:03;;;;;;;9.75;7.38;;;7.90;84.80;;;;;;4979208;28;20073;-65
2023/12/16 11:24:39;;;;;;;9.82;7.28;;;8.00;85.20;;;;;;4976295;28;20030;-65
2023/12/16 11:27:05;;;;;;;10.00;6.70;;;8.00;84.60;;;;;;4974223;28;20117;-65
2023/12/16 11:29:30;;;;;;;7.47;5.40;;;8.00;85.00;;;;;;4970595;28;20499;-65
2023/12/16 11:31:58;;;;;;;6.07;5.22;;;8.10;84.80;;;;;;4969094;28;20489;-65
2023/12/16 11:34:44;;;;;;;8.20;5.57;;;8.20;84.20;;;;;;4973174;28;20041;-62
2023/12/16 11:37:11;;;;;;;6.75;5.50;;;8.20;82.80;;;;;;4960932;28;20038;-65
2023/12/16 11:39:40;;;;;;;7.50;5.80;;;8.20;83.70;;;;;;4967344;28;20038;-65
2023/12/16 11:42:10;;;;;;;7.18;5.40;;;8.20;83.60;;;;;;4962238;28;20495;-65
2023/12/16 11:44:54;;;;;;;5.35;4.80;;;8.30;83.10;;;;;;4961632;28;20031;-65
2023/12/16 11:47:23;;;;;;;6.25;4.50;;;8.30;82.40;;;;;;4959014;28;20033;-65
2023/12/16 11:49:49;;;;;;;5.18;4.35;;;8.30;83.10;;;;;;4964267;28;20100;-65
2023/12/16 11:52:20;;;;;;;7.32;5.00;;;8.40;83.10;;;;;;4965151;28;20027;-65
2023/12/16 11:54:50;;;;;;;6.75;5.18;;;8.40;82.60;;;;;;4967009;28;20667;-65
2023/12/16 11:57:22;;;;;;;5.32;4.80;;;8.40;82.70;;;;;;4965156;28;20082;-65
2023/12/16 11:59:49;;;;;;;7.78;5.13;;;8.40;82.50;;;;;;4963209;28;20210;-64
2023/12/16 12:02:15;;;;;;;7.32;5.25;;;8.50;82.70;;;;;;4963966;28;20126;-65
2023/12/16 12:04:42;;;;;;;6.95;5.20;;;8.50;82.70;;;;;;4965212;28;20039;-65
2023/12/16 12:07:08;;;;;;;6.28;4.97;;;8.50;82.70;;;;;;4961197;28;20398;-65
2023/12/16 12:09:33;;;;;;;4.55;3.95;;;8.50;82.70;;;;;;4967302;28;21334;-65
2023/12/16 12:12:04;;;;;;;3.75;3.20;;;8.60;82.70;;;;;;4965875;28;20050;-63
2023/12/16 12:14:29;;;;;;;3.15;2.60;;;8.60;82.20;;;;;;4965750;28;20418;-65
2023/12/16 12:16:55;;;;;;;3.33;2.72;;;8.70;82.00;;;;;;4963217;28;20039;-61
2023/12/16 12:19:21;;;;;;;1.33;1.23;;;8.70;81.30;;;;;;4961917;28;20093;-65
2023/12/16 12:21:49;;;;;;;1.08;0.90;;;8.80;80.80;;;;;;4965936;28;20034;-65
2023/12/16 12:24:15;;;;;;;1.60;1.50;;;8.80;79.30;;;;;;4963581;28;20130;-64
2023/12/16 12:26:42;;;;;;;2.47;1.88;;;8.70;78.90;;;;;;4964413;28;20525;-62
2023/12/16 12:29:08;;;;;;;1.92;1.80;;;8.80;79.20;;;;;;4961936;28;20050;-65
2023/12/16 12:31:45;;;;;;;2.08;1.88;;;8.80;79.10;;;;;;4964823;28;20506;-65
2023/12/16 12:34:17;;;;;;;3.05;2.70;;;8.80;77.30;;;;;;4964002;28;20514;-65
2023/12/16 12:36:43;;;;;;;3.47;3.17;;;8.80;75.40;;;;;;4962844;28;20042;-65
2023/12/16 12:39:15;;;;;;;3.45;2.58;;;8.70;76.10;;;;;;4966284;28;20077;-64